createdAt,value
2018-06-09T00:01:10.187Z,17.22
2018-06-09T00:03:39.278Z,17.17
2018-06-09T00:06:07.990Z,17.15
2018-06-09T00:08:37.870Z,17.04
2018-06-09T00:11:06.841Z,17.01
2018-06-09T00:13:35.858Z,16.98
2018-06-09T00:16:04.712Z,17.01
2018-06-09T00:18:33.872Z,16.99
2018-06-09T00:21:02.608Z,17.00
2018-06-09T00:23:31.832Z,17.00
2018-06-09T00:26:00.757Z,17.05
2018-06-09T00:28:29.497Z,17.07
2018-06-09T00:30:58.265Z,17.06
2018-06-09T00:33:26.960Z,17.00
2018-06-09T00:35:55.643Z,16.92
2018-06-09T00:38:25.067Z,16.90
2018-06-09T00:40:53.755Z,16.90
2018-06-09T00:43:22.502Z,16.85
2018-06-09T00:45:51.397Z,16.83
2018-06-09T00:48:20.517Z,16.86
2018-06-09T00:50:50.192Z,16.87
2018-06-09T00:53:18.870Z,16.87
2018-06-09T00:55:47.802Z,16.81
2018-06-09T00:58:16.605Z,16.82
2018-06-09T01:00:45.390Z,16.81
2018-06-09T01:03:14.076Z,16.81
2018-06-09T01:05:42.886Z,16.82
2018-06-09T01:08:12.120Z,16.82
2018-06-09T01:10:41.416Z,16.72
2018-06-09T01:13:10.136Z,16.68
2018-06-09T01:15:38.998Z,16.70
2018-06-09T01:18:07.647Z,16.69
2018-06-09T01:20:36.762Z,16.66
2018-06-09T01:23:05.505Z,16.72
2018-06-09T01:25:34.311Z,16.74
2018-06-09T01:28:03.196Z,16.75
2018-06-09T01:30:32.165Z,16.80
2018-06-09T01:33:01.311Z,16.83
2018-06-09T01:35:30.261Z,16.85
2018-06-09T01:37:59.557Z,16.86
2018-06-09T01:40:29.334Z,16.85
2018-06-09T01:42:58.224Z,16.85
2018-06-09T01:45:27.371Z,16.81
2018-06-09T01:47:56.302Z,16.69
2018-06-09T01:50:25.128Z,16.60
2018-06-09T01:52:53.944Z,16.58
2018-06-09T01:55:23.645Z,16.58
2018-06-09T01:57:52.656Z,16.59
2018-06-09T02:00:21.868Z,16.59
2018-06-09T02:02:51.144Z,16.61
2018-06-09T02:05:20.103Z,16.61
2018-06-09T02:07:49.547Z,16.60
2018-06-09T02:10:18.363Z,16.54
2018-06-09T02:12:47.181Z,16.52
2018-06-09T02:15:16.064Z,16.56
2018-06-09T02:17:44.944Z,16.60
2018-06-09T02:20:13.739Z,16.61
2018-06-09T02:22:43.424Z,16.63
2018-06-09T02:25:12.115Z,16.51
2018-06-09T02:27:41.270Z,16.45
2018-06-09T02:30:10.560Z,16.42
2018-06-09T02:32:39.710Z,16.43
2018-06-09T02:35:09.220Z,16.47
2018-06-09T02:37:37.875Z,16.49
2018-06-09T02:40:07.416Z,16.52
2018-06-09T02:42:36.811Z,16.45
2018-06-09T02:45:05.575Z,16.50
2018-06-09T02:47:34.316Z,16.55
2018-06-09T02:50:03.061Z,16.59
2018-06-09T02:52:31.756Z,16.59
2018-06-09T02:55:00.400Z,16.57
2018-06-09T02:57:29.139Z,16.57
2018-06-09T02:59:58.056Z,16.57
2018-06-09T03:02:26.732Z,16.64
2018-06-09T03:04:55.736Z,16.67
2018-06-09T03:07:24.694Z,16.70
2018-06-09T03:09:53.382Z,16.71
2018-06-09T03:12:22.106Z,16.76
2018-06-09T03:14:50.916Z,16.81
2018-06-09T03:17:19.942Z,16.86
2018-06-09T03:19:48.757Z,16.89
2018-06-09T03:22:17.540Z,16.87
2018-06-09T03:24:46.425Z,16.80
2018-06-09T03:27:14.976Z,16.76
2018-06-09T03:29:43.726Z,16.71
2018-06-09T03:32:12.377Z,16.68
2018-06-09T03:34:41.607Z,16.74
2018-06-09T03:37:10.575Z,16.80
2018-06-09T03:39:39.153Z,16.84
2018-06-09T03:42:08.249Z,16.85
2018-06-09T03:51:13.418Z,16.92
2018-06-09T03:53:42.274Z,16.94
2018-06-09T03:56:10.945Z,17.03
2018-06-09T03:58:39.525Z,17.11
2018-06-09T04:01:08.335Z,17.15
2018-06-09T04:03:37.203Z,17.22
2018-06-09T04:06:06.508Z,17.27
2018-06-09T04:08:35.913Z,17.28
2018-06-09T04:11:04.510Z,17.26
2018-06-09T04:13:33.167Z,17.28
2018-06-09T04:16:02.655Z,17.32
2018-06-09T04:18:32.810Z,17.39
2018-06-09T04:21:01.418Z,17.41
2018-06-09T04:23:30.335Z,17.41
2018-06-09T04:26:00.023Z,17.45
2018-06-09T04:28:28.796Z,17.47
2018-06-09T04:30:57.471Z,17.50
2018-06-09T04:33:26.222Z,17.50
2018-06-09T04:35:55.342Z,17.54
2018-06-09T04:38:23.972Z,17.59
2018-06-09T04:40:52.945Z,17.62
2018-06-09T04:43:22.351Z,17.68
2018-06-09T04:45:51.326Z,17.71
2018-06-09T04:48:20.016Z,17.70
2018-06-09T04:50:48.852Z,17.76
2018-06-09T04:53:18.371Z,17.94
2018-06-09T04:55:48.261Z,18.15
2018-06-09T04:58:17.167Z,18.35
2018-06-09T05:00:45.831Z,18.56
2018-06-09T05:03:14.404Z,18.66
2018-06-09T05:05:43.198Z,18.73
2018-06-09T05:08:12.509Z,18.73
2018-06-09T05:10:41.346Z,18.81
2018-06-09T05:13:10.221Z,18.99
2018-06-09T05:15:39.134Z,19.03
2018-06-09T05:18:07.771Z,19.07
2018-06-09T05:20:36.572Z,19.11
2018-06-09T05:23:05.534Z,19.25
2018-06-09T05:25:34.164Z,19.41
2018-06-09T05:28:03.425Z,19.59
2018-06-09T05:30:32.694Z,19.70
2018-06-09T05:33:01.748Z,19.88
2018-06-09T05:35:30.583Z,20.10
2018-06-09T05:37:59.109Z,20.49
2018-06-09T05:40:28.023Z,20.93
2018-06-09T05:42:56.628Z,20.96
2018-06-09T05:45:25.338Z,20.87
2018-06-09T05:47:54.291Z,20.78
2018-06-09T05:50:23.477Z,20.51
2018-06-09T05:52:52.791Z,20.23
2018-06-09T05:55:21.547Z,20.14
2018-06-09T05:57:50.176Z,20.53
2018-06-09T06:00:19.073Z,21.43
2018-06-09T06:02:48.605Z,22.14
2018-06-09T06:05:17.319Z,22.58
2018-06-09T06:07:45.948Z,22.58
2018-06-09T06:10:14.887Z,22.16
2018-06-09T06:12:43.585Z,21.88
2018-06-09T06:15:12.691Z,21.83
2018-06-09T06:17:41.793Z,21.83
2018-06-09T06:20:10.757Z,21.91
2018-06-09T06:22:39.928Z,22.01
2018-06-09T06:25:08.598Z,21.99
2018-06-09T06:27:37.828Z,21.81
2018-06-09T06:30:06.731Z,22.17
2018-06-09T06:32:35.472Z,23.47
2018-06-09T06:35:04.427Z,24.51
2018-06-09T06:37:33.142Z,25.43
2018-06-09T06:40:01.948Z,25.59
2018-06-09T06:42:30.727Z,25.19
2018-06-09T06:44:59.630Z,24.49
2018-06-09T06:47:28.887Z,24.26
2018-06-09T06:49:57.953Z,23.92
2018-06-09T06:52:26.671Z,23.89
2018-06-09T06:54:55.344Z,24.53
2018-06-09T06:57:24.158Z,25.35
2018-06-09T06:59:52.752Z,25.85
2018-06-09T07:02:22.092Z,26.96
2018-06-09T07:04:50.862Z,27.94
2018-06-09T07:07:19.586Z,28.95
2018-06-09T07:09:48.233Z,29.61
2018-06-09T07:12:17.004Z,29.45
2018-06-09T07:14:46.149Z,28.96
2018-06-09T07:17:15.333Z,28.06
2018-06-09T07:19:44.239Z,27.37
2018-06-09T07:22:13.005Z,26.74
2018-06-09T07:24:41.722Z,26.04
2018-06-09T07:27:11.049Z,25.55
2018-06-09T07:29:39.848Z,25.54
2018-06-09T07:32:08.788Z,25.26
2018-06-09T07:34:37.725Z,25.17
2018-06-09T07:37:06.469Z,25.17
2018-06-09T07:39:35.529Z,25.69
2018-06-09T07:42:04.316Z,26.32
2018-06-09T07:44:33.084Z,27.81
2018-06-09T07:47:02.284Z,29.02
2018-06-09T07:49:31.014Z,28.88
2018-06-09T07:51:59.819Z,28.50
2018-06-09T07:54:29.029Z,27.30
2018-06-09T07:56:57.728Z,26.64
2018-06-09T07:59:26.578Z,26.12
2018-06-09T08:01:55.593Z,26.13
2018-06-09T08:04:24.419Z,25.81
2018-06-09T08:06:53.682Z,25.75
2018-06-09T08:09:22.668Z,25.42
2018-06-09T08:11:51.394Z,25.18
2018-06-09T08:14:20.682Z,25.82
2018-06-09T08:16:49.490Z,27.85
2018-06-09T08:19:18.187Z,30.25
2018-06-09T08:21:47.017Z,32.66
2018-06-09T08:24:15.961Z,33.27
2018-06-09T08:26:44.628Z,32.43
2018-06-09T08:29:13.288Z,30.48
2018-06-09T08:31:41.974Z,28.49
2018-06-09T08:34:10.649Z,28.68
2018-06-09T08:36:39.739Z,30.17
2018-06-09T08:39:08.819Z,32.40
2018-06-09T08:41:37.750Z,33.96
2018-06-09T08:44:06.474Z,35.43
2018-06-09T08:46:35.628Z,36.49
2018-06-09T08:49:05.099Z,35.90
2018-06-09T08:51:33.880Z,34.65
2018-06-09T08:54:02.660Z,35.49
2018-06-09T08:56:31.392Z,35.05
2018-06-09T08:59:00.213Z,35.75
2018-06-09T09:01:29.075Z,37.39
2018-06-09T09:03:58.185Z,37.59
2018-06-09T09:06:27.009Z,37.10
2018-06-09T09:08:55.863Z,35.53
2018-06-09T09:11:24.615Z,34.98
2018-06-09T09:13:53.498Z,35.10
2018-06-09T09:16:22.462Z,34.29
2018-06-09T09:18:51.777Z,33.64
2018-06-09T09:21:20.495Z,33.85
2018-06-09T09:23:49.419Z,34.87
2018-06-09T09:26:18.474Z,35.57
2018-06-09T09:28:47.729Z,35.07
2018-06-09T09:31:16.650Z,34.04
2018-06-09T09:33:45.282Z,32.92
2018-06-09T09:36:14.044Z,33.97
2018-06-09T09:38:42.860Z,36.39
2018-06-09T09:41:11.760Z,38.43
2018-06-09T09:43:41.023Z,39.25
2018-06-09T09:46:10.374Z,40.04
2018-06-09T09:48:39.523Z,41.01
2018-06-09T09:51:08.254Z,41.81
2018-06-09T09:53:37.650Z,41.41
2018-06-09T09:56:07.180Z,40.45
2018-06-09T09:58:35.793Z,40.46
2018-06-09T10:01:04.697Z,40.94
2018-06-09T10:03:33.491Z,41.92
2018-06-09T10:06:02.256Z,41.89
2018-06-09T10:08:30.874Z,40.39
2018-06-09T10:10:59.433Z,38.37
2018-06-09T10:13:28.223Z,35.50
2018-06-09T10:15:56.900Z,34.65
2018-06-09T10:18:26.405Z,35.72
2018-06-09T10:20:55.246Z,36.83
2018-06-09T10:23:24.706Z,34.74
2018-06-09T10:25:53.826Z,33.51
2018-06-09T10:28:22.931Z,32.29
2018-06-09T10:30:51.960Z,33.58
2018-06-09T10:33:21.606Z,35.81
2018-06-09T10:35:50.479Z,38.61
2018-06-09T10:38:19.313Z,39.12
2018-06-09T10:40:48.105Z,38.64
2018-06-09T10:43:17.064Z,39.33
2018-06-09T10:45:46.549Z,39.39
2018-06-09T10:48:15.954Z,40.00
2018-06-09T10:50:44.753Z,40.21
2018-06-09T10:53:13.740Z,39.79
2018-06-09T10:55:42.648Z,38.92
2018-06-09T10:58:11.499Z,37.53
2018-06-09T11:00:40.180Z,36.45
2018-06-09T11:03:08.994Z,35.80
2018-06-09T11:05:37.586Z,35.72
2018-06-09T11:08:06.399Z,35.88
2018-06-09T11:10:35.179Z,34.73
2018-06-09T11:13:04.113Z,33.93
2018-06-09T11:15:33.619Z,33.56
2018-06-09T11:18:02.280Z,33.35
2018-06-09T11:20:31.068Z,33.52
2018-06-09T11:23:00.100Z,32.68
2018-06-09T11:25:28.736Z,33.01
2018-06-09T11:27:57.546Z,32.67
2018-06-09T11:30:26.568Z,33.12
2018-06-09T11:32:55.337Z,32.64
2018-06-09T11:35:24.260Z,32.64
2018-06-09T11:37:53.815Z,32.68
2018-06-09T11:40:22.624Z,32.83
2018-06-09T11:42:51.975Z,32.58
2018-06-09T11:45:20.991Z,32.38
2018-06-09T11:47:49.774Z,32.31
2018-06-09T11:50:18.632Z,32.34
2018-06-09T11:52:47.466Z,32.24
2018-06-09T11:55:16.341Z,32.49
2018-06-09T11:57:45.479Z,32.46
2018-06-09T12:00:15.020Z,32.37
2018-06-09T12:02:43.710Z,32.46
2018-06-09T12:05:13.004Z,32.19
2018-06-09T12:07:42.019Z,31.81
2018-06-09T12:10:11.580Z,31.59
2018-06-09T12:12:40.396Z,31.22
2018-06-09T12:15:09.274Z,30.75
2018-06-09T12:17:38.230Z,30.94
2018-06-09T12:20:08.249Z,30.73
2018-06-09T12:22:37.281Z,30.46
2018-06-09T12:25:06.837Z,29.99
2018-06-09T12:27:35.770Z,29.60
2018-06-09T12:30:04.879Z,29.41
2018-06-09T12:32:33.620Z,29.30
2018-06-09T12:35:02.625Z,29.10
2018-06-09T12:37:32.190Z,28.94
2018-06-09T12:40:01.130Z,28.67
2018-06-09T12:42:29.881Z,28.75
2018-06-09T12:44:58.641Z,28.73
2018-06-09T12:47:27.384Z,28.65
2018-06-09T12:49:55.956Z,28.55
2018-06-09T12:52:24.615Z,28.55
2018-06-09T12:54:53.590Z,28.33
2018-06-09T12:57:22.457Z,28.15
2018-06-09T12:59:51.896Z,28.03
2018-06-09T13:02:21.329Z,28.03
2018-06-09T13:04:50.706Z,28.00
2018-06-09T13:07:19.832Z,27.93
2018-06-09T13:09:48.946Z,27.87
2018-06-09T13:12:17.916Z,27.84
2018-06-09T13:14:47.406Z,27.89
2018-06-09T13:17:16.154Z,27.94
2018-06-09T13:19:44.750Z,28.18
2018-06-09T13:22:13.916Z,28.15
2018-06-09T13:24:42.594Z,28.13
2018-06-09T13:27:11.300Z,28.21
2018-06-09T13:29:40.066Z,28.43
2018-06-09T13:32:08.970Z,28.40
2018-06-09T13:34:38.060Z,28.35
2018-06-09T13:37:07.417Z,28.40
2018-06-09T13:39:36.715Z,28.41
2018-06-09T13:42:05.601Z,28.50
2018-06-09T13:44:35.075Z,28.39
2018-06-09T13:47:04.176Z,28.24
2018-06-09T13:49:33.478Z,28.16
2018-06-09T13:52:02.346Z,28.26
2018-06-09T13:54:31.080Z,28.07
2018-06-09T13:57:00.052Z,27.86
2018-06-09T13:59:28.741Z,27.83
2018-06-09T14:01:57.864Z,27.99
2018-06-09T14:04:26.820Z,28.06
2018-06-09T14:06:56.095Z,28.00
2018-06-09T14:09:24.999Z,28.00
2018-06-09T14:11:53.687Z,27.89
2018-06-09T14:14:23.291Z,27.62
2018-06-09T14:16:52.791Z,27.24
2018-06-09T14:19:22.138Z,26.98
2018-06-09T14:21:52.302Z,26.79
2018-06-09T14:24:21.732Z,26.68
2018-06-09T14:26:50.812Z,26.60
2018-06-09T14:29:19.935Z,26.37
2018-06-09T14:31:49.141Z,26.14
2018-06-09T14:34:18.091Z,26.08
2018-06-09T14:36:46.975Z,26.02
2018-06-09T14:39:15.867Z,26.08
2018-06-09T14:41:45.413Z,26.07
2018-06-09T14:44:14.980Z,26.21
2018-06-09T14:46:44.562Z,26.01
2018-06-09T14:49:13.510Z,26.10
2018-06-09T14:51:42.458Z,25.86
2018-06-09T14:54:11.276Z,25.73
2018-06-09T14:56:40.747Z,25.57
2018-06-09T14:59:10.255Z,25.50
2018-06-09T15:01:39.560Z,25.58
2018-06-09T15:04:08.262Z,25.64
2018-06-09T15:06:37.394Z,25.55
2018-06-09T15:09:08.826Z,25.49
2018-06-09T15:11:37.691Z,25.18
2018-06-09T15:14:07.245Z,25.08
2018-06-09T15:16:36.086Z,25.06
2018-06-09T15:19:05.458Z,25.19
2018-06-09T15:21:34.353Z,25.11
2018-06-09T15:24:03.011Z,25.07
2018-06-09T15:26:31.782Z,25.31
2018-06-09T15:29:01.808Z,25.09
2018-06-09T15:31:30.730Z,24.94
2018-06-09T15:33:59.663Z,24.89
2018-06-09T15:36:28.887Z,24.90
2018-06-09T15:38:57.797Z,24.86
2018-06-09T15:41:26.656Z,24.84
2018-06-09T15:43:55.761Z,24.77
2018-06-09T15:46:24.917Z,24.70
2018-06-09T15:48:54.057Z,24.83
2018-06-09T15:51:22.995Z,24.80
2018-06-09T15:53:51.837Z,24.78
2018-06-09T15:56:21.745Z,24.90
2018-06-09T15:58:50.995Z,25.08
2018-06-09T16:01:19.747Z,25.22
2018-06-09T16:03:48.453Z,25.28
2018-06-09T16:06:17.705Z,25.28
2018-06-09T16:08:46.883Z,25.23
2018-06-09T16:11:15.861Z,25.13
2018-06-09T16:13:44.571Z,25.11
2018-06-09T16:16:13.613Z,25.05
2018-06-09T16:18:42.349Z,24.94
2018-06-09T16:21:11.149Z,24.84
2018-06-09T16:23:40.196Z,24.73
2018-06-09T16:26:09.083Z,24.67
2018-06-09T16:28:37.758Z,24.53
2018-06-09T16:31:06.956Z,24.34
2018-06-09T16:33:35.620Z,24.22
2018-06-09T16:36:04.380Z,24.22
2018-06-09T16:38:33.422Z,24.19
2018-06-09T16:41:02.243Z,24.14
2018-06-09T16:43:31.205Z,24.13
2018-06-09T16:46:00.511Z,24.08
2018-06-09T16:48:29.562Z,24.07
2018-06-09T16:50:58.848Z,24.06
2018-06-09T16:53:28.058Z,24.03
2018-06-09T16:55:57.047Z,24.06
2018-06-09T16:58:26.744Z,24.02
2018-06-09T17:05:57.522Z,23.88
2018-06-09T17:08:26.305Z,23.83
2018-06-09T17:10:55.142Z,23.82
2018-06-09T17:13:24.695Z,23.79
2018-06-09T17:15:53.977Z,23.78
2018-06-09T17:18:22.732Z,23.81
2018-06-09T17:20:51.507Z,23.88
2018-06-09T17:23:20.512Z,23.95
2018-06-09T17:25:49.477Z,24.04
2018-06-09T17:28:19.172Z,24.07
2018-06-09T17:30:48.426Z,24.04
2018-06-09T17:33:16.932Z,23.95
2018-06-09T17:35:45.958Z,23.74
2018-06-09T17:38:14.900Z,23.68
2018-06-09T17:40:43.612Z,23.61
2018-06-09T17:43:12.476Z,23.64
2018-06-09T17:45:41.755Z,23.62
2018-06-09T17:48:11.007Z,23.60
2018-06-09T17:50:39.808Z,23.49
2018-06-09T17:53:08.609Z,23.47
2018-06-09T17:55:37.620Z,23.32
2018-06-09T17:58:06.542Z,23.38
2018-06-09T18:00:36.162Z,23.41
2018-06-09T18:03:04.925Z,23.36
2018-06-09T18:05:34.508Z,23.25
2018-06-09T18:08:03.366Z,23.27
2018-06-09T18:10:32.349Z,23.37
2018-06-09T18:13:01.223Z,23.41
2018-06-09T18:15:31.011Z,23.43
2018-06-09T18:17:59.820Z,23.21
2018-06-09T18:20:28.799Z,23.07
2018-06-09T18:22:58.154Z,23.04
2018-06-09T18:25:26.901Z,22.96
2018-06-09T18:27:55.628Z,23.00
2018-06-09T18:30:24.405Z,23.08
2018-06-09T18:32:53.275Z,23.10
2018-06-09T18:35:22.202Z,23.07
2018-06-09T18:37:51.098Z,22.94
2018-06-09T18:40:20.643Z,22.65
2018-06-09T18:42:50.133Z,22.47
2018-06-09T18:45:19.228Z,22.44
2018-06-09T18:47:47.962Z,22.45
2018-06-09T18:50:16.613Z,22.39
2018-06-09T18:52:45.492Z,22.21
2018-06-09T18:55:14.377Z,22.10
2018-06-09T18:57:43.155Z,22.02
2018-06-09T19:00:12.586Z,21.90
2018-06-09T19:02:41.596Z,21.85
2018-06-09T19:05:10.338Z,21.77
2018-06-09T19:07:39.468Z,21.69
2018-06-09T19:10:08.439Z,21.64
2018-06-09T19:12:37.323Z,21.56
2018-06-09T19:15:06.172Z,21.47
2018-06-09T19:17:34.973Z,21.43
2018-06-09T19:20:04.489Z,21.33
2018-06-09T19:22:33.667Z,21.29
2018-06-09T19:25:02.452Z,21.24
2018-06-09T19:27:31.414Z,21.18
2018-06-09T19:30:00.263Z,21.12
2018-06-09T19:32:29.118Z,21.02
2018-06-09T19:34:58.044Z,20.92
2018-06-09T19:37:27.041Z,20.87
2018-06-09T19:39:55.787Z,20.83
2018-06-09T19:42:25.423Z,20.75
2018-06-09T19:44:54.543Z,20.69
2018-06-09T19:47:24.114Z,20.52
2018-06-09T19:49:52.954Z,20.34
2018-06-09T19:52:22.376Z,20.29
2018-06-09T19:54:51.313Z,20.18
2018-06-09T19:57:20.319Z,20.12
2018-06-09T19:59:49.107Z,20.16
2018-06-09T20:02:18.117Z,20.16
2018-06-09T20:04:46.806Z,20.17
2018-06-09T20:07:15.564Z,20.13
2018-06-09T20:09:44.413Z,20.04
2018-06-09T20:12:13.398Z,19.94
2018-06-09T20:14:42.230Z,19.90
2018-06-09T20:17:11.524Z,19.78
2018-06-09T20:19:40.328Z,19.63
2018-06-09T20:22:09.150Z,19.59
2018-06-09T20:24:38.123Z,19.56
2018-06-09T20:27:06.856Z,19.51
2018-06-09T20:29:35.807Z,19.49
2018-06-09T20:32:05.181Z,19.53
2018-06-09T20:34:34.119Z,19.58
2018-06-09T20:37:03.269Z,19.54
2018-06-09T20:39:32.217Z,19.55
2018-06-09T20:42:01.081Z,19.53
2018-06-09T20:44:30.109Z,19.53
2018-06-09T20:46:59.143Z,19.59
2018-06-09T20:49:27.914Z,19.67
2018-06-09T20:51:56.627Z,19.74
2018-06-09T20:54:25.904Z,19.77
2018-06-09T20:56:55.124Z,19.81
2018-06-09T20:59:23.939Z,19.72
2018-06-09T21:01:52.801Z,19.69
2018-06-09T21:04:21.509Z,19.74
2018-06-09T21:06:52.131Z,19.81
2018-06-09T21:09:20.870Z,19.80
2018-06-09T21:11:49.774Z,19.76
2018-06-09T21:14:18.738Z,19.68
2018-06-09T21:16:47.904Z,19.57
2018-06-09T21:19:17.519Z,19.44
2018-06-09T21:21:46.370Z,19.31
2018-06-09T21:24:15.465Z,19.19
2018-06-09T21:26:50.607Z,19.18
2018-06-09T21:29:24.442Z,19.22
2018-06-09T21:31:53.967Z,19.23
2018-06-09T21:34:36.129Z,19.26
2018-06-09T21:37:11.449Z,19.21
2018-06-09T21:39:45.283Z,19.15
2018-06-09T21:42:19.264Z,19.15
2018-06-09T21:44:48.459Z,19.14
2018-06-09T21:47:17.262Z,19.13
2018-06-09T21:49:46.000Z,19.05
2018-06-09T21:52:14.997Z,18.98
2018-06-09T21:54:43.644Z,18.99
2018-06-09T21:57:12.355Z,18.99
2018-06-09T21:59:42.254Z,19.01
2018-06-09T22:02:11.036Z,18.99
2018-06-09T22:04:40.148Z,18.90
2018-06-09T22:07:09.367Z,18.80
2018-06-09T22:09:38.340Z,18.78
2018-06-09T22:12:07.953Z,18.75
2018-06-09T22:14:36.758Z,18.76
2018-06-09T22:17:05.726Z,18.70
2018-06-09T22:19:34.689Z,18.69
2018-06-09T22:22:03.476Z,18.66
2018-06-09T22:24:32.303Z,18.68
2018-06-09T22:27:01.398Z,18.70
2018-06-09T22:29:30.330Z,18.65
2018-06-09T22:31:59.709Z,18.60
2018-06-09T22:34:28.529Z,18.57
2018-06-09T22:36:57.154Z,18.57
2018-06-09T22:39:25.908Z,18.53
2018-06-09T22:41:54.679Z,18.48
2018-06-09T22:44:23.728Z,18.48
2018-06-09T22:46:52.527Z,18.48
2018-06-09T22:49:21.317Z,18.50
2018-06-09T22:51:50.144Z,18.50
2018-06-09T22:54:19.751Z,18.46
2018-06-09T22:56:48.782Z,18.33
2018-06-09T22:59:17.585Z,18.26
2018-06-09T23:01:46.437Z,18.22
2018-06-09T23:04:15.473Z,18.23
2018-06-09T23:06:44.314Z,18.26
2018-06-09T23:09:13.066Z,18.26
2018-06-09T23:11:41.879Z,18.25
2018-06-09T23:14:10.696Z,18.23
2018-06-09T23:16:39.725Z,18.21
2018-06-09T23:19:08.728Z,18.23
2018-06-09T23:21:37.438Z,18.13
2018-06-09T23:24:06.667Z,18.10
2018-06-09T23:26:35.643Z,18.12
2018-06-09T23:29:04.572Z,18.21
2018-06-09T23:31:33.325Z,18.21
2018-06-09T23:34:02.513Z,18.16
2018-06-09T23:36:31.626Z,18.13
2018-06-09T23:39:00.514Z,18.09
2018-06-09T23:41:29.408Z,18.03
2018-06-09T23:43:58.474Z,17.96
2018-06-09T23:46:27.229Z,17.95
2018-06-09T23:48:55.922Z,17.98
2018-06-09T23:51:24.882Z,17.97
2018-06-09T23:53:53.822Z,17.97
2018-06-09T23:56:22.565Z,17.88
2018-06-09T23:58:51.668Z,17.82
